sensor_id;sensor_type;location;lat;lon;timestamp;P1;durP1;ratioP1;P2;durP2;ratioP2
79533;SDS011;68982;52.160;6.736;2024-03-29T00:01:28;4.55;;;1.02;;
79533;SDS011;68982;52.160;6.736;2024-03-29T00:03:53;3.50;;;1.02;;
79533;SDS011;68982;52.160;6.736;2024-03-29T00:06:19;2.37;;;1.07;;
79533;SDS011;68982;52.160;6.736;2024-03-29T00:08:44;1.95;;;0.73;;
79533;SDS011;68982;52.160;6.736;2024-03-29T00:11:10;3.28;;;1.23;;
79533;SDS011;68982;52.160;6.736;2024-03-29T00:13:35;2.55;;;0.82;;
79533;SDS011;68982;52.160;6.736;2024-03-29T00:16:00;3.03;;;1.08;;
79533;SDS011;68982;52.160;6.736;2024-03-29T00:18:26;3.30;;;1.25;;
79533;SDS011;68982;52.160;6.736;2024-03-29T00:20:51;2.20;;;1.00;;
79533;SDS011;68982;52.160;6.736;2024-03-29T00:23:17;4.30;;;0.97;;
79533;SDS011;68982;52.160;6.736;2024-03-29T00:25:42;3.33;;;0.98;;
79533;SDS011;68982;52.160;6.736;2024-03-29T00:28:07;4.63;;;0.93;;
79533;SDS011;68982;52.160;6.736;2024-03-29T00:30:33;4.78;;;1.08;;
79533;SDS011;68982;52.160;6.736;2024-03-29T00:32:58;2.03;;;0.80;;
79533;SDS011;68982;52.160;6.736;2024-03-29T00:35:23;3.58;;;1.15;;
79533;SDS011;68982;52.160;6.736;2024-03-29T00:37:49;3.37;;;1.10;;
79533;SDS011;68982;52.160;6.736;2024-03-29T00:40:15;2.72;;;1.20;;
79533;SDS011;68982;52.160;6.736;2024-03-29T00:42:41;4.55;;;0.98;;
79533;SDS011;68982;52.160;6.736;2024-03-29T00:45:06;3.45;;;0.90;;
79533;SDS011;68982;52.160;6.736;2024-03-29T00:47:32;4.15;;;0.95;;
79533;SDS011;68982;52.160;6.736;2024-03-29T00:49:58;2.65;;;1.00;;
79533;SDS011;68982;52.160;6.736;2024-03-29T00:52:23;4.78;;;0.95;;
79533;SDS011;68982;52.160;6.736;2024-03-29T00:54:48;2.83;;;0.95;;
79533;SDS011;68982;52.160;6.736;2024-03-29T00:57:15;1.67;;;0.90;;
79533;SDS011;68982;52.160;6.736;2024-03-29T00:59:40;4.30;;;1.20;;
79533;SDS011;68982;52.160;6.736;2024-03-29T01:02:08;1.65;;;0.80;;
79533;SDS011;68982;52.160;6.736;2024-03-29T01:04:34;4.72;;;1.02;;
79533;SDS011;68982;52.160;6.736;2024-03-29T01:06:59;4.63;;;1.00;;
79533;SDS011;68982;52.160;6.736;2024-03-29T01:09:24;3.47;;;0.90;;
79533;SDS011;68982;52.160;6.736;2024-03-29T01:11:50;4.07;;;1.03;;
79533;SDS011;68982;52.160;6.736;2024-03-29T01:14:16;2.47;;;1.00;;
79533;SDS011;68982;52.160;6.736;2024-03-29T01:16:42;3.55;;;0.90;;
79533;SDS011;68982;52.160;6.736;2024-03-29T01:19:08;3.13;;;0.90;;
79533;SDS011;68982;52.160;6.736;2024-03-29T01:21:35;5.68;;;0.90;;
79533;SDS011;68982;52.160;6.736;2024-03-29T01:24:00;4.53;;;1.02;;
79533;SDS011;68982;52.160;6.736;2024-03-29T01:26:26;2.90;;;0.82;;
79533;SDS011;68982;52.160;6.736;2024-03-29T01:28:51;5.90;;;1.10;;
79533;SDS011;68982;52.160;6.736;2024-03-29T01:31:16;4.43;;;0.73;;
79533;SDS011;68982;52.160;6.736;2024-03-29T01:33:42;4.20;;;0.82;;
79533;SDS011;68982;52.160;6.736;2024-03-29T01:36:07;4.13;;;1.20;;
79533;SDS011;68982;52.160;6.736;2024-03-29T01:38:33;2.20;;;0.93;;
79533;SDS011;68982;52.160;6.736;2024-03-29T01:40:59;3.92;;;1.25;;
79533;SDS011;68982;52.160;6.736;2024-03-29T01:43:24;3.38;;;1.15;;
79533;SDS011;68982;52.160;6.736;2024-03-29T01:45:51;2.78;;;0.93;;
79533;SDS011;68982;52.160;6.736;2024-03-29T01:48:20;2.58;;;1.10;;
79533;SDS011;68982;52.160;6.736;2024-03-29T01:50:49;2.45;;;0.80;;
79533;SDS011;68982;52.160;6.736;2024-03-29T01:53:16;2.83;;;0.90;;
79533;SDS011;68982;52.160;6.736;2024-03-29T01:55:44;2.75;;;0.60;;
79533;SDS011;68982;52.160;6.736;2024-03-29T01:58:10;2.20;;;0.75;;
79533;SDS011;68982;52.160;6.736;2024-03-29T02:00:36;1.50;;;0.80;;
79533;SDS011;68982;52.160;6.736;2024-03-29T02:03:06;3.72;;;1.25;;
79533;SDS011;68982;52.160;6.736;2024-03-29T02:05:38;1.55;;;0.80;;
79533;SDS011;68982;52.160;6.736;2024-03-29T02:08:07;3.28;;;1.17;;
79533;SDS011;68982;52.160;6.736;2024-03-29T02:10:33;3.55;;;0.98;;
79533;SDS011;68982;52.160;6.736;2024-03-29T02:12:59;2.72;;;1.08;;
79533;SDS011;68982;52.160;6.736;2024-03-29T02:15:27;2.27;;;0.90;;
79533;SDS011;68982;52.160;6.736;2024-03-29T02:17:53;2.55;;;1.00;;
79533;SDS011;68982;52.160;6.736;2024-03-29T02:20:19;7.57;;;0.90;;
79533;SDS011;68982;52.160;6.736;2024-03-29T02:22:46;2.45;;;1.05;;
79533;SDS011;68982;52.160;6.736;2024-03-29T02:25:20;3.45;;;0.90;;
79533;SDS011;68982;52.160;6.736;2024-03-29T02:27:46;4.95;;;1.45;;
79533;SDS011;68982;52.160;6.736;2024-03-29T02:30:15;2.38;;;0.75;;
79533;SDS011;68982;52.160;6.736;2024-03-29T02:32:41;6.07;;;1.17;;
79533;SDS011;68982;52.160;6.736;2024-03-29T02:35:07;2.85;;;0.90;;
79533;SDS011;68982;52.160;6.736;2024-03-29T02:37:33;2.90;;;1.58;;
79533;SDS011;68982;52.160;6.736;2024-03-29T02:39:59;4.50;;;1.20;;
79533;SDS011;68982;52.160;6.736;2024-03-29T02:42:24;3.13;;;1.10;;
79533;SDS011;68982;52.160;6.736;2024-03-29T02:44:50;6.23;;;1.00;;
79533;SDS011;68982;52.160;6.736;2024-03-29T02:47:15;1.80;;;0.90;;
79533;SDS011;68982;52.160;6.736;2024-03-29T02:49:40;5.03;;;1.48;;
79533;SDS011;68982;52.160;6.736;2024-03-29T02:52:06;2.40;;;0.82;;
79533;SDS011;68982;52.160;6.736;2024-03-29T02:54:32;3.17;;;1.40;;
79533;SDS011;68982;52.160;6.736;2024-03-29T02:56:58;2.95;;;1.02;;
79533;SDS011;68982;52.160;6.736;2024-03-29T02:59:23;3.30;;;1.10;;
79533;SDS011;68982;52.160;6.736;2024-03-29T03:01:48;2.63;;;1.10;;
79533;SDS011;68982;52.160;6.736;2024-03-29T03:04:13;3.53;;;1.23;;
79533;SDS011;68982;52.160;6.736;2024-03-29T03:06:39;4.03;;;1.40;;
79533;SDS011;68982;52.160;6.736;2024-03-29T03:09:04;6.37;;;1.20;;
79533;SDS011;68982;52.160;6.736;2024-03-29T03:11:48;3.58;;;1.10;;
79533;SDS011;68982;52.160;6.736;2024-03-29T03:14:13;4.13;;;1.20;;
79533;SDS011;68982;52.160;6.736;2024-03-29T03:16:38;4.50;;;1.40;;
79533;SDS011;68982;52.160;6.736;2024-03-29T03:19:04;4.87;;;1.20;;
79533;SDS011;68982;52.160;6.736;2024-03-29T03:21:29;2.75;;;1.20;;
79533;SDS011;68982;52.160;6.736;2024-03-29T03:23:54;4.40;;;1.40;;
79533;SDS011;68982;52.160;6.736;2024-03-29T03:26:20;1.92;;;1.20;;
79533;SDS011;68982;52.160;6.736;2024-03-29T03:28:45;2.35;;;1.42;;
79533;SDS011;68982;52.160;6.736;2024-03-29T03:31:10;5.18;;;1.10;;
79533;SDS011;68982;52.160;6.736;2024-03-29T03:33:36;4.03;;;1.30;;
79533;SDS011;68982;52.160;6.736;2024-03-29T03:36:01;1.75;;;1.20;;
79533;SDS011;68982;52.160;6.736;2024-03-29T03:38:27;3.85;;;1.23;;
79533;SDS011;68982;52.160;6.736;2024-03-29T03:40:52;3.87;;;1.10;;
79533;SDS011;68982;52.160;6.736;2024-03-29T03:43:18;3.22;;;0.90;;
79533;SDS011;68982;52.160;6.736;2024-03-29T03:45:43;3.53;;;1.02;;
79533;SDS011;68982;52.160;6.736;2024-03-29T03:48:10;5.43;;;2.78;;
79533;SDS011;68982;52.160;6.736;2024-03-29T03:50:36;1.65;;;1.00;;
79533;SDS011;68982;52.160;6.736;2024-03-29T03:53:03;1.38;;;0.68;;
79533;SDS011;68982;52.160;6.736;2024-03-29T03:55:28;3.60;;;0.85;;
79533;SDS011;68982;52.160;6.736;2024-03-29T03:57:57;2.78;;;0.80;;
79533;SDS011;68982;52.160;6.736;2024-03-29T04:00:22;3.13;;;0.80;;
79533;SDS011;68982;52.160;6.736;2024-03-29T04:02:48;5.38;;;1.00;;
79533;SDS011;68982;52.160;6.736;2024-03-29T04:05:23;3.65;;;0.88;;
79533;SDS011;68982;52.160;6.736;2024-03-29T04:07:50;3.83;;;0.90;;
79533;SDS011;68982;52.160;6.736;2024-03-29T04:10:15;4.50;;;1.00;;
79533;SDS011;68982;52.160;6.736;2024-03-29T04:12:40;1.95;;;0.80;;
79533;SDS011;68982;52.160;6.736;2024-03-29T04:15:06;4.47;;;0.80;;
79533;SDS011;68982;52.160;6.736;2024-03-29T04:17:32;2.33;;;0.90;;
79533;SDS011;68982;52.160;6.736;2024-03-29T04:19:57;3.97;;;1.10;;
79533;SDS011;68982;52.160;6.736;2024-03-29T04:22:23;3.83;;;1.23;;
79533;SDS011;68982;52.160;6.736;2024-03-29T04:24:49;4.18;;;1.00;;
79533;SDS011;68982;52.160;6.736;2024-03-29T04:27:15;4.13;;;0.80;;
79533;SDS011;68982;52.160;6.736;2024-03-29T04:29:40;3.47;;;1.30;;
79533;SDS011;68982;52.160;6.736;2024-03-29T04:32:05;2.70;;;1.10;;
79533;SDS011;68982;52.160;6.736;2024-03-29T04:34:31;2.78;;;1.02;;
79533;SDS011;68982;52.160;6.736;2024-03-29T04:36:56;2.13;;;1.10;;
79533;SDS011;68982;52.160;6.736;2024-03-29T04:39:22;2.40;;;0.93;;
79533;SDS011;68982;52.160;6.736;2024-03-29T04:41:47;1.42;;;0.85;;
79533;SDS011;68982;52.160;6.736;2024-03-29T04:44:13;3.35;;;1.08;;
79533;SDS011;68982;52.160;6.736;2024-03-29T04:46:39;2.05;;;0.95;;
79533;SDS011;68982;52.160;6.736;2024-03-29T04:49:04;4.28;;;0.98;;
79533;SDS011;68982;52.160;6.736;2024-03-29T04:51:29;3.70;;;1.00;;
79533;SDS011;68982;52.160;6.736;2024-03-29T04:53:55;1.55;;;0.80;;
79533;SDS011;68982;52.160;6.736;2024-03-29T04:56:20;4.93;;;1.00;;
79533;SDS011;68982;52.160;6.736;2024-03-29T04:58:45;1.40;;;0.70;;
79533;SDS011;68982;52.160;6.736;2024-03-29T05:01:11;3.10;;;0.90;;
79533;SDS011;68982;52.160;6.736;2024-03-29T05:03:36;2.33;;;0.90;;
79533;SDS011;68982;52.160;6.736;2024-03-29T05:06:02;3.97;;;0.97;;
79533;SDS011;68982;52.160;6.736;2024-03-29T05:08:27;2.72;;;0.93;;
79533;SDS011;68982;52.160;6.736;2024-03-29T05:10:52;3.80;;;1.03;;
79533;SDS011;68982;52.160;6.736;2024-03-29T05:13:18;1.38;;;0.90;;
79533;SDS011;68982;52.160;6.736;2024-03-29T05:15:44;2.83;;;0.90;;
79533;SDS011;68982;52.160;6.736;2024-03-29T05:18:10;1.77;;;0.88;;
79533;SDS011;68982;52.160;6.736;2024-03-29T05:20:36;3.50;;;0.98;;
79533;SDS011;68982;52.160;6.736;2024-03-29T05:23:01;1.70;;;0.90;;
79533;SDS011;68982;52.160;6.736;2024-03-29T05:25:27;1.45;;;0.90;;
79533;SDS011;68982;52.160;6.736;2024-03-29T05:27:53;2.35;;;0.80;;
79533;SDS011;68982;52.160;6.736;2024-03-29T05:30:18;6.57;;;1.13;;
79533;SDS011;68982;52.160;6.736;2024-03-29T05:32:44;2.80;;;1.05;;
79533;SDS011;68982;52.160;6.736;2024-03-29T05:35:09;3.20;;;0.90;;
79533;SDS011;68982;52.160;6.736;2024-03-29T05:37:35;3.13;;;1.02;;
79533;SDS011;68982;52.160;6.736;2024-03-29T05:40:01;2.00;;;1.15;;
79533;SDS011;68982;52.160;6.736;2024-03-29T05:42:30;2.65;;;1.20;;
79533;SDS011;68982;52.160;6.736;2024-03-29T05:44:56;2.33;;;0.82;;
79533;SDS011;68982;52.160;6.736;2024-03-29T05:47:22;4.80;;;1.10;;
79533;SDS011;68982;52.160;6.736;2024-03-29T05:49:48;2.72;;;0.77;;
79533;SDS011;68982;52.160;6.736;2024-03-29T05:52:14;2.92;;;0.80;;
79533;SDS011;68982;52.160;6.736;2024-03-29T05:54:40;2.17;;;0.80;;
79533;SDS011;68982;52.160;6.736;2024-03-29T05:57:05;3.38;;;0.73;;
79533;SDS011;68982;52.160;6.736;2024-03-29T05:59:34;2.33;;;0.95;;
79533;SDS011;68982;52.160;6.736;2024-03-29T06:02:00;2.25;;;1.20;;
79533;SDS011;68982;52.160;6.736;2024-03-29T06:04:26;2.70;;;0.93;;
79533;SDS011;68982;52.160;6.736;2024-03-29T06:06:57;1.65;;;1.05;;
79533;SDS011;68982;52.160;6.736;2024-03-29T06:09:24;2.13;;;1.00;;
79533;SDS011;68982;52.160;6.736;2024-03-29T06:11:49;2.83;;;1.25;;
79533;SDS011;68982;52.160;6.736;2024-03-29T06:14:14;4.10;;;1.03;;
79533;SDS011;68982;52.160;6.736;2024-03-29T06:16:58;3.65;;;1.48;;
79533;SDS011;68982;52.160;6.736;2024-03-29T06:19:42;5.22;;;1.95;;
79533;SDS011;68982;52.160;6.736;2024-03-29T06:22:07;2.17;;;1.23;;
79533;SDS011;68982;52.160;6.736;2024-03-29T06:24:34;2.92;;;1.33;;
79533;SDS011;68982;52.160;6.736;2024-03-29T06:27:00;2.22;;;1.38;;
79533;SDS011;68982;52.160;6.736;2024-03-29T06:29:25;3.45;;;1.30;;
79533;SDS011;68982;52.160;6.736;2024-03-29T06:31:50;3.38;;;1.52;;
79533;SDS011;68982;52.160;6.736;2024-03-29T06:34:16;4.87;;;1.60;;
79533;SDS011;68982;52.160;6.736;2024-03-29T06:36:41;3.30;;;1.92;;
79533;SDS011;68982;52.160;6.736;2024-03-29T06:39:06;3.43;;;1.57;;
79533;SDS011;68982;52.160;6.736;2024-03-29T06:41:32;2.67;;;1.58;;
79533;SDS011;68982;52.160;6.736;2024-03-29T06:43:58;4.20;;;1.47;;
79533;SDS011;68982;52.160;6.736;2024-03-29T06:46:23;3.25;;;1.50;;
79533;SDS011;68982;52.160;6.736;2024-03-29T06:48:48;3.90;;;1.63;;
79533;SDS011;68982;52.160;6.736;2024-03-29T06:51:14;3.00;;;1.70;;
79533;SDS011;68982;52.160;6.736;2024-03-29T06:53:39;4.72;;;2.03;;
79533;SDS011;68982;52.160;6.736;2024-03-29T06:56:05;5.85;;;3.42;;
79533;SDS011;68982;52.160;6.736;2024-03-29T06:58:30;5.97;;;1.67;;
79533;SDS011;68982;52.160;6.736;2024-03-29T07:00:56;2.88;;;1.60;;
79533;SDS011;68982;52.160;6.736;2024-03-29T07:03:23;5.63;;;2.42;;
79533;SDS011;68982;52.160;6.736;2024-03-29T07:05:49;5.00;;;2.42;;
79533;SDS011;68982;52.160;6.736;2024-03-29T07:08:14;3.47;;;1.80;;
79533;SDS011;68982;52.160;6.736;2024-03-29T07:10:40;6.32;;;2.58;;
79533;SDS011;68982;52.160;6.736;2024-03-29T07:13:06;2.75;;;1.70;;
79533;SDS011;68982;52.160;6.736;2024-03-29T07:15:32;3.45;;;1.80;;
79533;SDS011;68982;52.160;6.736;2024-03-29T07:17:57;5.53;;;2.92;;
79533;SDS011;68982;52.160;6.736;2024-03-29T07:20:23;7.70;;;4.40;;
79533;SDS011;68982;52.160;6.736;2024-03-29T07:22:50;4.72;;;2.50;;
79533;SDS011;68982;52.160;6.736;2024-03-29T07:25:15;7.13;;;4.55;;
79533;SDS011;68982;52.160;6.736;2024-03-29T07:27:41;3.88;;;2.97;;
79533;SDS011;68982;52.160;6.736;2024-03-29T07:30:06;5.20;;;2.30;;
79533;SDS011;68982;52.160;6.736;2024-03-29T07:32:33;3.42;;;2.42;;
79533;SDS011;68982;52.160;6.736;2024-03-29T07:34:58;5.63;;;2.75;;
79533;SDS011;68982;52.160;6.736;2024-03-29T07:37:24;5.03;;;1.73;;
79533;SDS011;68982;52.160;6.736;2024-03-29T07:39:50;10.27;;;6.85;;
79533;SDS011;68982;52.160;6.736;2024-03-29T07:42:16;5.32;;;2.22;;
79533;SDS011;68982;52.160;6.736;2024-03-29T07:44:42;2.10;;;1.38;;
79533;SDS011;68982;52.160;6.736;2024-03-29T07:47:07;2.40;;;1.73;;
79533;SDS011;68982;52.160;6.736;2024-03-29T07:49:33;2.60;;;1.60;;
79533;SDS011;68982;52.160;6.736;2024-03-29T07:51:58;8.43;;;2.85;;
79533;SDS011;68982;52.160;6.736;2024-03-29T07:54:24;3.28;;;1.73;;
79533;SDS011;68982;52.160;6.736;2024-03-29T07:56:50;2.80;;;1.07;;
79533;SDS011;68982;52.160;6.736;2024-03-29T07:59:15;4.20;;;1.73;;
79533;SDS011;68982;52.160;6.736;2024-03-29T08:01:44;2.13;;;1.83;;
79533;SDS011;68982;52.160;6.736;2024-03-29T08:04:09;3.85;;;2.05;;
79533;SDS011;68982;52.160;6.736;2024-03-29T08:06:35;1.70;;;1.48;;
79533;SDS011;68982;52.160;6.736;2024-03-29T08:09:00;3.40;;;1.92;;
79533;SDS011;68982;52.160;6.736;2024-03-29T08:11:25;2.55;;;1.48;;
79533;SDS011;68982;52.160;6.736;2024-03-29T08:13:51;4.40;;;1.97;;
79533;SDS011;68982;52.160;6.736;2024-03-29T08:16:17;2.78;;;1.73;;
79533;SDS011;68982;52.160;6.736;2024-03-29T08:18:42;2.17;;;1.85;;
79533;SDS011;68982;52.160;6.736;2024-03-29T08:21:08;2.90;;;1.60;;
79533;SDS011;68982;52.160;6.736;2024-03-29T08:23:36;3.67;;;2.83;;
79533;SDS011;68982;52.160;6.736;2024-03-29T08:26:03;3.22;;;2.00;;
79533;SDS011;68982;52.160;6.736;2024-03-29T08:28:29;2.60;;;1.27;;
79533;SDS011;68982;52.160;6.736;2024-03-29T08:31:02;2.47;;;1.20;;
79533;SDS011;68982;52.160;6.736;2024-03-29T08:33:31;2.67;;;1.65;;
79533;SDS011;68982;52.160;6.736;2024-03-29T08:35:57;5.18;;;3.05;;
79533;SDS011;68982;52.160;6.736;2024-03-29T08:38:23;3.03;;;1.75;;
79533;SDS011;68982;52.160;6.736;2024-03-29T08:40:48;3.22;;;2.05;;
79533;SDS011;68982;52.160;6.736;2024-03-29T08:43:14;3.33;;;1.40;;
79533;SDS011;68982;52.160;6.736;2024-03-29T08:45:43;3.35;;;1.50;;
79533;SDS011;68982;52.160;6.736;2024-03-29T08:48:11;3.95;;;2.05;;
79533;SDS011;68982;52.160;6.736;2024-03-29T08:50:37;3.67;;;1.92;;
79533;SDS011;68982;52.160;6.736;2024-03-29T08:53:03;4.10;;;1.52;;
79533;SDS011;68982;52.160;6.736;2024-03-29T08:55:32;4.55;;;2.47;;
79533;SDS011;68982;52.160;6.736;2024-03-29T08:57:59;5.10;;;2.25;;
79533;SDS011;68982;52.160;6.736;2024-03-29T09:00:25;4.65;;;2.22;;
79533;SDS011;68982;52.160;6.736;2024-03-29T09:02:51;3.45;;;1.73;;
79533;SDS011;68982;52.160;6.736;2024-03-29T09:05:17;6.53;;;2.90;;
79533;SDS011;68982;52.160;6.736;2024-03-29T09:07:42;7.07;;;3.20;;
79533;SDS011;68982;52.160;6.736;2024-03-29T09:10:08;7.72;;;2.92;;
79533;SDS011;68982;52.160;6.736;2024-03-29T09:12:33;2.72;;;1.73;;
79533;SDS011;68982;52.160;6.736;2024-03-29T09:14:59;2.88;;;1.70;;
79533;SDS011;68982;52.160;6.736;2024-03-29T09:17:25;3.95;;;1.60;;
79533;SDS011;68982;52.160;6.736;2024-03-29T09:19:51;5.00;;;1.75;;
79533;SDS011;68982;52.160;6.736;2024-03-29T09:22:19;3.97;;;2.33;;
79533;SDS011;68982;52.160;6.736;2024-03-29T09:24:44;3.78;;;1.90;;
79533;SDS011;68982;52.160;6.736;2024-03-29T09:27:10;2.30;;;1.50;;
79533;SDS011;68982;52.160;6.736;2024-03-29T09:29:35;2.45;;;1.73;;
79533;SDS011;68982;52.160;6.736;2024-03-29T09:32:01;5.38;;;1.83;;
79533;SDS011;68982;52.160;6.736;2024-03-29T09:34:29;3.55;;;1.60;;
79533;SDS011;68982;52.160;6.736;2024-03-29T09:36:55;5.10;;;1.52;;
79533;SDS011;68982;52.160;6.736;2024-03-29T09:39:21;3.83;;;1.63;;
79533;SDS011;68982;52.160;6.736;2024-03-29T09:41:46;6.35;;;1.95;;
79533;SDS011;68982;52.160;6.736;2024-03-29T09:44:12;4.25;;;2.13;;
79533;SDS011;68982;52.160;6.736;2024-03-29T09:46:37;4.35;;;2.10;;
79533;SDS011;68982;52.160;6.736;2024-03-29T09:49:05;4.22;;;1.75;;
79533;SDS011;68982;52.160;6.736;2024-03-29T09:51:37;5.00;;;2.25;;
79533;SDS011;68982;52.160;6.736;2024-03-29T09:54:04;5.53;;;2.42;;
79533;SDS011;68982;52.160;6.736;2024-03-29T09:56:33;5.88;;;2.22;;
79533;SDS011;68982;52.160;6.736;2024-03-29T09:58:59;5.85;;;2.40;;
79533;SDS011;68982;52.160;6.736;2024-03-29T10:01:26;4.70;;;1.92;;
79533;SDS011;68982;52.160;6.736;2024-03-29T10:03:52;2.97;;;1.80;;
79533;SDS011;68982;52.160;6.736;2024-03-29T10:06:19;2.22;;;1.55;;
79533;SDS011;68982;52.160;6.736;2024-03-29T10:08:46;4.78;;;2.25;;
79533;SDS011;68982;52.160;6.736;2024-03-29T10:11:13;7.25;;;2.33;;
79533;SDS011;68982;52.160;6.736;2024-03-29T10:13:41;3.33;;;1.88;;
79533;SDS011;68982;52.160;6.736;2024-03-29T10:16:07;4.90;;;1.95;;
79533;SDS011;68982;52.160;6.736;2024-03-29T10:18:36;3.97;;;1.75;;
79533;SDS011;68982;52.160;6.736;2024-03-29T10:21:05;3.47;;;2.00;;
79533;SDS011;68982;52.160;6.736;2024-03-29T10:23:32;3.63;;;1.52;;
79533;SDS011;68982;52.160;6.736;2024-03-29T10:25:58;2.95;;;1.73;;
79533;SDS011;68982;52.160;6.736;2024-03-29T10:28:27;3.17;;;2.08;;
79533;SDS011;68982;52.160;6.736;2024-03-29T10:30:56;3.75;;;2.13;;
79533;SDS011;68982;52.160;6.736;2024-03-29T10:33:21;4.75;;;2.33;;
79533;SDS011;68982;52.160;6.736;2024-03-29T10:35:47;3.00;;;1.83;;
79533;SDS011;68982;52.160;6.736;2024-03-29T10:38:12;3.58;;;2.05;;
79533;SDS011;68982;52.160;6.736;2024-03-29T10:40:38;4.53;;;1.90;;
79533;SDS011;68982;52.160;6.736;2024-03-29T10:43:06;4.38;;;1.70;;
79533;SDS011;68982;52.160;6.736;2024-03-29T10:45:37;5.68;;;2.13;;
79533;SDS011;68982;52.160;6.736;2024-03-29T10:48:04;6.30;;;2.10;;
79533;SDS011;68982;52.160;6.736;2024-03-29T10:50:34;3.80;;;2.10;;
79533;SDS011;68982;52.160;6.736;2024-03-29T10:53:06;5.82;;;2.40;;
79533;SDS011;68982;52.160;6.736;2024-03-29T10:55:34;3.38;;;2.30;;
79533;SDS011;68982;52.160;6.736;2024-03-29T10:58:01;3.45;;;1.80;;
79533;SDS011;68982;52.160;6.736;2024-03-29T11:00:48;4.03;;;2.22;;
79533;SDS011;68982;52.160;6.736;2024-03-29T11:03:18;3.75;;;1.83;;
79533;SDS011;68982;52.160;6.736;2024-03-29T11:05:48;3.13;;;1.88;;
79533;SDS011;68982;52.160;6.736;2024-03-29T11:08:22;5.22;;;2.00;;
79533;SDS011;68982;52.160;6.736;2024-03-29T11:10:53;3.88;;;1.95;;
79533;SDS011;68982;52.160;6.736;2024-03-29T11:15:57;3.53;;;1.90;;
79533;SDS011;68982;52.160;6.736;2024-03-29T11:18:24;2.67;;;1.70;;
79533;SDS011;68982;52.160;6.736;2024-03-29T11:20:51;4.03;;;1.83;;
79533;SDS011;68982;52.160;6.736;2024-03-29T11:23:19;4.03;;;1.65;;
79533;SDS011;68982;52.160;6.736;2024-03-29T11:25:46;3.47;;;1.95;;
79533;SDS011;68982;52.160;6.736;2024-03-29T11:28:29;3.50;;;2.10;;
79533;SDS011;68982;52.160;6.736;2024-03-29T11:31:02;3.97;;;2.33;;
79533;SDS011;68982;52.160;6.736;2024-03-29T11:36:10;3.80;;;2.05;;
79533;SDS011;68982;52.160;6.736;2024-03-29T11:38:37;3.03;;;1.80;;
79533;SDS011;68982;52.160;6.736;2024-03-29T11:41:05;2.42;;;1.23;;
79533;SDS011;68982;52.160;6.736;2024-03-29T11:43:31;3.38;;;1.75;;
79533;SDS011;68982;52.160;6.736;2024-03-29T11:46:00;2.65;;;1.60;;
79533;SDS011;68982;52.160;6.736;2024-03-29T11:48:28;2.63;;;1.73;;
79533;SDS011;68982;52.160;6.736;2024-03-29T11:50:54;2.60;;;1.60;;
79533;SDS011;68982;52.160;6.736;2024-03-29T11:53:20;3.30;;;1.80;;
79533;SDS011;68982;52.160;6.736;2024-03-29T11:55:46;4.40;;;1.80;;
79533;SDS011;68982;52.160;6.736;2024-03-29T11:58:13;3.05;;;1.40;;
79533;SDS011;68982;52.160;6.736;2024-03-29T12:00:40;4.72;;;1.80;;
79533;SDS011;68982;52.160;6.736;2024-03-29T12:03:09;4.00;;;1.70;;
79533;SDS011;68982;52.160;6.736;2024-03-29T12:05:35;2.65;;;1.45;;
79533;SDS011;68982;52.160;6.736;2024-03-29T12:08:00;2.53;;;1.75;;
79533;SDS011;68982;52.160;6.736;2024-03-29T12:10:28;4.53;;;1.50;;
79533;SDS011;68982;52.160;6.736;2024-03-29T12:12:57;3.00;;;1.50;;
79533;SDS011;68982;52.160;6.736;2024-03-29T12:15:23;2.30;;;1.63;;
79533;SDS011;68982;52.160;6.736;2024-03-29T12:17:54;1.95;;;1.40;;
79533;SDS011;68982;52.160;6.736;2024-03-29T12:20:20;1.67;;;1.20;;
79533;SDS011;68982;52.160;6.736;2024-03-29T12:22:45;1.45;;;1.00;;
79533;SDS011;68982;52.160;6.736;2024-03-29T12:25:11;2.53;;;1.33;;
79533;SDS011;68982;52.160;6.736;2024-03-29T12:27:37;1.95;;;0.90;;
79533;SDS011;68982;52.160;6.736;2024-03-29T12:30:03;1.77;;;1.20;;
79533;SDS011;68982;52.160;6.736;2024-03-29T12:32:29;2.22;;;1.10;;
79533;SDS011;68982;52.160;6.736;2024-03-29T12:35:06;3.03;;;1.63;;
79533;SDS011;68982;52.160;6.736;2024-03-29T12:37:33;2.05;;;1.00;;
79533;SDS011;68982;52.160;6.736;2024-03-29T12:39:59;1.30;;;1.00;;
79533;SDS011;68982;52.160;6.736;2024-03-29T12:42:24;1.80;;;1.13;;
79533;SDS011;68982;52.160;6.736;2024-03-29T12:44:50;3.05;;;1.10;;
79533;SDS011;68982;52.160;6.736;2024-03-29T12:47:17;2.42;;;1.02;;
79533;SDS011;68982;52.160;6.736;2024-03-29T12:49:42;2.42;;;1.10;;
79533;SDS011;68982;52.160;6.736;2024-03-29T12:52:07;2.20;;;1.10;;
79533;SDS011;68982;52.160;6.736;2024-03-29T12:54:35;1.75;;;1.00;;
79533;SDS011;68982;52.160;6.736;2024-03-29T12:57:00;1.45;;;0.90;;
79533;SDS011;68982;52.160;6.736;2024-03-29T12:59:33;2.22;;;1.30;;
79533;SDS011;68982;52.160;6.736;2024-03-29T13:01:59;2.30;;;1.30;;
79533;SDS011;68982;52.160;6.736;2024-03-29T13:04:25;1.23;;;1.13;;
79533;SDS011;68982;52.160;6.736;2024-03-29T13:06:51;2.55;;;1.20;;
79533;SDS011;68982;52.160;6.736;2024-03-29T13:09:16;2.10;;;1.00;;
79533;SDS011;68982;52.160;6.736;2024-03-29T13:11:41;2.03;;;1.37;;
79533;SDS011;68982;52.160;6.736;2024-03-29T13:14:06;1.90;;;0.90;;
79533;SDS011;68982;52.160;6.736;2024-03-29T13:16:32;1.38;;;1.00;;
79533;SDS011;68982;52.160;6.736;2024-03-29T13:18:57;1.17;;;0.80;;
79533;SDS011;68982;52.160;6.736;2024-03-29T13:21:22;1.70;;;0.90;;
79533;SDS011;68982;52.160;6.736;2024-03-29T13:23:48;2.65;;;1.10;;
79533;SDS011;68982;52.160;6.736;2024-03-29T13:26:13;2.03;;;1.20;;
79533;SDS011;68982;52.160;6.736;2024-03-29T13:28:39;1.55;;;1.10;;
79533;SDS011;68982;52.160;6.736;2024-03-29T13:31:04;2.03;;;1.00;;
79533;SDS011;68982;52.160;6.736;2024-03-29T13:33:29;2.53;;;1.07;;
79533;SDS011;68982;52.160;6.736;2024-03-29T13:35:57;2.33;;;1.00;;
79533;SDS011;68982;52.160;6.736;2024-03-29T13:38:23;1.13;;;1.00;;
79533;SDS011;68982;52.160;6.736;2024-03-29T13:40:51;1.95;;;0.90;;
79533;SDS011;68982;52.160;6.736;2024-03-29T13:43:16;2.30;;;1.02;;
79533;SDS011;68982;52.160;6.736;2024-03-29T13:45:42;1.35;;;0.88;;
79533;SDS011;68982;52.160;6.736;2024-03-29T13:48:07;1.27;;;0.90;;
79533;SDS011;68982;52.160;6.736;2024-03-29T13:50:33;2.03;;;0.83;;
79533;SDS011;68982;52.160;6.736;2024-03-29T13:52:58;2.00;;;0.90;;
79533;SDS011;68982;52.160;6.736;2024-03-29T13:55:23;2.90;;;0.80;;
79533;SDS011;68982;52.160;6.736;2024-03-29T13:57:51;2.47;;;1.00;;
79533;SDS011;68982;52.160;6.736;2024-03-29T14:00:17;2.10;;;0.80;;
79533;SDS011;68982;52.160;6.736;2024-03-29T14:02:44;1.15;;;0.77;;
79533;SDS011;68982;52.160;6.736;2024-03-29T14:05:09;1.42;;;0.70;;
79533;SDS011;68982;52.160;6.736;2024-03-29T14:07:36;2.65;;;0.70;;
79533;SDS011;68982;52.160;6.736;2024-03-29T14:10:01;2.25;;;0.82;;
79533;SDS011;68982;52.160;6.736;2024-03-29T14:12:29;2.10;;;0.90;;
79533;SDS011;68982;52.160;6.736;2024-03-29T14:14:54;1.35;;;0.95;;
79533;SDS011;68982;52.160;6.736;2024-03-29T14:17:21;1.60;;;1.08;;
79533;SDS011;68982;52.160;6.736;2024-03-29T14:19:47;1.88;;;1.00;;
79533;SDS011;68982;52.160;6.736;2024-03-29T14:22:13;2.40;;;1.20;;
79533;SDS011;68982;52.160;6.736;2024-03-29T14:24:40;1.95;;;1.23;;
79533;SDS011;68982;52.160;6.736;2024-03-29T14:27:06;1.55;;;0.98;;
79533;SDS011;68982;52.160;6.736;2024-03-29T14:29:35;2.97;;;1.30;;
79533;SDS011;68982;52.160;6.736;2024-03-29T14:32:00;1.65;;;1.05;;
79533;SDS011;68982;52.160;6.736;2024-03-29T14:34:26;1.80;;;1.02;;
79533;SDS011;68982;52.160;6.736;2024-03-29T14:36:53;1.77;;;1.00;;
79533;SDS011;68982;52.160;6.736;2024-03-29T14:39:18;1.40;;;1.00;;
79533;SDS011;68982;52.160;6.736;2024-03-29T14:41:46;1.20;;;0.90;;
79533;SDS011;68982;52.160;6.736;2024-03-29T14:44:15;1.98;;;1.00;;
79533;SDS011;68982;52.160;6.736;2024-03-29T14:46:41;1.95;;;0.80;;
79533;SDS011;68982;52.160;6.736;2024-03-29T14:49:06;1.63;;;1.00;;